CheckWX is a tool to help pilots better visualize weather data.  It is not intended as a substitute for an official pre-flight weather briefing.

02:58:19 UTC

KBDH METAR
Willmar Municipal-John L Rice Field Airport
Willmar, Minnesota, USA
Current

23 mins ago

KBDH 180235Z AUTO 01005KT 10SM CLR M09/M14 A3018 RMK AO2
Observed
Feb-18 @ 02:35 UTC
Wind
  • 010° at 5 KTS
Visibility
10 SM
Flight Rules
VFR
Cloud Levels
  • Clear skies
Temperature
-9°C / 16°F
Dewpoint
-14°C / 7°F
Humidity
67%
Altimeter
30.18" Hg
Pressure
1022.02 hPa
Previous

42 mins ago

KBDH 180216Z AUTO 01005KT 10SM CLR M09/M14 A3017 RMK AO2
Observed
Feb-18 @ 02:16 UTC
Wind
  • 010° at 5 KTS
Visibility
10 SM
Flight Rules
VFR
Cloud Levels
  • Clear skies
Temperature
-9°C / 16°F
Dewpoint
-14°C / 7°F
Humidity
67%
Altimeter
30.17" Hg
Pressure
1021.72 hPa
Previous

1 hour ago

KBDH 180156Z AUTO 01006KT 10SM CLR M09/M13 A3017 RMK AO2
Observed
Feb-18 @ 01:56 UTC
Wind
  • 010° at 6 KTS
Visibility
10 SM
Flight Rules
VFR
Cloud Levels
  • Clear skies
Temperature
-9°C / 16°F
Dewpoint
-13°C / 9°F
Humidity
73%
Altimeter
30.17" Hg
Pressure
1021.72 hPa